createdAt,value
2019-02-17T00:00:51.972Z,71.73
2019-02-17T00:03:19.832Z,67.10
2019-02-17T00:05:47.619Z,71.37
2019-02-17T00:08:15.541Z,69.60
2019-02-17T00:10:43.381Z,69.40
2019-02-17T00:13:11.281Z,64.53
2019-02-17T00:15:39.088Z,60.30
2019-02-17T00:18:06.876Z,68.10
2019-02-17T00:20:35.921Z,70.97
2019-02-17T00:23:03.818Z,67.70
2019-02-17T00:25:31.767Z,79.80
2019-02-17T00:28:03.962Z,67.23
2019-02-17T00:30:33.067Z,78.80
2019-02-17T00:33:00.939Z,68.37
2019-02-17T00:35:28.839Z,91.97
2019-02-17T00:37:56.620Z,66.13
2019-02-17T00:40:24.442Z,64.60
2019-02-17T00:42:52.397Z,71.80
2019-02-17T00:45:20.190Z,66.30
2019-02-17T00:47:48.131Z,65.43
2019-02-17T00:50:15.928Z,63.37
2019-02-17T00:52:44.829Z,64.50
2019-02-17T00:55:12.781Z,67.57
2019-02-17T00:57:40.550Z,69.43
2019-02-17T01:00:09.232Z,66.63
2019-02-17T01:02:37.009Z,74.07
2019-02-17T01:05:05.493Z,77.77
2019-02-17T01:07:33.464Z,62.73
2019-02-17T01:10:01.436Z,62.13
2019-02-17T01:12:29.410Z,67.03
2019-02-17T01:14:57.189Z,71.27
2019-02-17T01:17:25.112Z,67.67
2019-02-17T01:19:53.026Z,60.97
2019-02-17T01:22:22.594Z,72.30
2019-02-17T01:24:50.508Z,65.40
2019-02-17T01:27:19.531Z,65.53
2019-02-17T01:29:47.424Z,67.03
2019-02-17T01:32:15.425Z,67.50
2019-02-17T01:34:43.355Z,73.43
2019-02-17T01:37:11.144Z,70.47
2019-02-17T01:39:39.056Z,67.67
2019-02-17T01:42:06.846Z,59.60
2019-02-17T01:44:36.335Z,70.10
2019-02-17T01:47:04.318Z,68.50
2019-02-17T01:49:32.288Z,72.27
2019-02-17T01:52:00.071Z,68.27
2019-02-17T01:54:27.963Z,65.47
2019-02-17T01:56:55.902Z,68.57
2019-02-17T01:59:30.430Z,64.83
2019-02-17T02:01:55.172Z,65.20
2019-02-17T02:04:23.201Z,63.50
2019-02-17T02:06:50.998Z,72.73
2019-02-17T02:09:18.765Z,60.03
2019-02-17T02:11:46.704Z,60.50
2019-02-17T02:14:14.699Z,62.50
2019-02-17T02:16:42.820Z,67.43
2019-02-17T02:19:10.589Z,63.10
2019-02-17T02:21:39.646Z,64.57
2019-02-17T02:24:07.720Z,58.83
2019-02-17T02:26:35.504Z,64.17
2019-02-17T02:29:03.651Z,69.73
2019-02-17T02:31:31.552Z,70.60
2019-02-17T02:33:59.594Z,63.63
2019-02-17T02:36:27.393Z,66.13
2019-02-17T02:38:55.156Z,61.23
2019-02-17T02:41:33.939Z,60.50
2019-02-17T02:43:52.801Z,63.50
2019-02-17T02:46:20.644Z,61.90
2019-02-17T02:48:49.698Z,58.47
2019-02-17T02:51:17.464Z,57.37
2019-02-17T02:53:45.427Z,59.17
2019-02-17T02:56:13.251Z,63.10
2019-02-17T02:58:41.059Z,56.70
2019-02-17T03:01:09.979Z,61.23
2019-02-17T03:03:37.745Z,58.47
2019-02-17T03:06:39.559Z,61.93
2019-02-17T03:09:07.410Z,64.10
2019-02-17T03:11:35.183Z,61.27
2019-02-17T03:14:03.114Z,66.83
2019-02-17T03:16:30.895Z,65.70
2019-02-17T03:18:58.810Z,55.57
2019-02-17T03:21:26.606Z,66.63
2019-02-17T03:23:54.404Z,66.07
2019-02-17T03:26:22.343Z,56.80
2019-02-17T03:28:50.244Z,55.90
2019-02-17T03:31:18.017Z,57.13
2019-02-17T03:33:45.968Z,62.47
2019-02-17T03:36:13.754Z,59.53
2019-02-17T03:38:42.831Z,61.93
2019-02-17T03:41:10.647Z,62.30
2019-02-17T03:43:38.415Z,60.30
2019-02-17T03:46:06.337Z,54.53
2019-02-17T03:48:35.943Z,58.93
2019-02-17T03:51:03.939Z,58.07
2019-02-17T03:53:31.708Z,55.47
2019-02-17T03:56:00.583Z,57.33
2019-02-17T03:58:28.535Z,54.03
2019-02-17T04:00:56.314Z,55.50
2019-02-17T04:03:25.524Z,59.00
2019-02-17T04:05:53.306Z,58.97
2019-02-17T04:08:21.088Z,59.67
2019-02-17T04:10:49.039Z,59.20
2019-02-17T04:13:16.925Z,60.00
2019-02-17T04:15:45.533Z,67.20
2019-02-17T04:18:13.508Z,51.07
2019-02-17T04:20:41.399Z,60.37
2019-02-17T04:23:09.314Z,64.40
2019-02-17T04:25:37.294Z,64.07
2019-02-17T04:28:05.116Z,67.50
2019-02-17T04:30:32.885Z,63.07
2019-02-17T04:33:00.806Z,58.03
2019-02-17T04:35:28.685Z,62.40
2019-02-17T04:37:56.667Z,58.20
2019-02-17T04:40:24.630Z,57.43
2019-02-17T04:42:53.632Z,65.30
2019-02-17T04:45:21.475Z,58.20
2019-02-17T04:47:49.457Z,62.83
2019-02-17T04:50:17.228Z,57.37
2019-02-17T04:52:45.001Z,67.67
2019-02-17T04:55:12.933Z,65.60
2019-02-17T04:57:40.801Z,60.20
2019-02-17T05:00:08.817Z,65.90
2019-02-17T05:02:36.791Z,70.10
2019-02-17T05:05:06.599Z,61.37
2019-02-17T05:07:34.685Z,65.73
2019-02-17T05:10:02.438Z,64.77
2019-02-17T05:12:30.252Z,60.93
2019-02-17T05:14:58.296Z,66.13
2019-02-17T05:17:26.075Z,61.60
2019-02-17T05:19:54.171Z,67.77
2019-02-17T05:22:22.329Z,61.70
2019-02-17T05:24:50.087Z,67.00
2019-02-17T05:27:17.989Z,61.73
2019-02-17T05:29:45.815Z,63.67
2019-02-17T05:32:15.455Z,61.87
2019-02-17T05:34:43.524Z,65.03
2019-02-17T05:37:11.323Z,65.50
2019-02-17T05:39:39.469Z,71.83
2019-02-17T05:42:07.238Z,66.23
2019-02-17T05:44:35.350Z,71.47
2019-02-17T05:47:03.117Z,65.83
2019-02-17T05:49:30.907Z,67.90
2019-02-17T05:52:00.666Z,61.57
2019-02-17T05:54:29.525Z,63.80
2019-02-17T05:56:57.311Z,63.57
2019-02-17T05:59:25.203Z,66.17
2019-02-17T06:01:52.974Z,68.37
2019-02-17T06:04:20.941Z,76.17
2019-02-17T06:06:48.714Z,64.10
2019-02-17T06:09:16.504Z,67.93
2019-02-17T06:11:44.548Z,56.37
2019-02-17T06:14:12.336Z,67.00
2019-02-17T06:16:40.126Z,57.40
2019-02-17T06:19:11.801Z,60.90
2019-02-17T06:21:39.608Z,57.03
2019-02-17T06:24:07.370Z,64.90
2019-02-17T06:26:35.374Z,64.40
2019-02-17T06:29:03.153Z,59.30
2019-02-17T06:31:31.207Z,64.03
2019-02-17T06:33:58.990Z,59.83
2019-02-17T06:36:26.753Z,66.17
2019-02-17T06:38:54.715Z,51.13
2019-02-17T06:41:22.533Z,57.20
2019-02-17T06:43:50.290Z,59.27
2019-02-17T06:46:22.223Z,56.23
2019-02-17T06:48:51.791Z,53.07
2019-02-17T06:51:19.570Z,60.73
2019-02-17T06:53:48.554Z,63.90
2019-02-17T06:56:25.582Z,61.63
2019-02-17T06:58:53.551Z,66.70
2019-02-17T07:01:24.710Z,63.83
2019-02-17T07:03:51.392Z,65.63
2019-02-17T07:06:24.247Z,59.90
2019-02-17T07:08:52.227Z,57.70
2019-02-17T07:11:22.916Z,67.70
2019-02-17T07:13:50.921Z,61.40
2019-02-17T07:16:20.833Z,59.70
2019-02-17T07:18:48.621Z,59.50
2019-02-17T07:21:20.389Z,58.47
2019-02-17T07:23:48.176Z,56.53
2019-02-17T07:26:17.253Z,58.53
2019-02-17T07:28:45.325Z,57.27
2019-02-17T07:31:13.280Z,58.77
2019-02-17T07:33:41.196Z,62.30
2019-02-17T07:36:08.968Z,62.13
2019-02-17T07:38:36.903Z,58.53
2019-02-17T07:41:04.663Z,62.53
2019-02-17T07:43:32.459Z,62.20
2019-02-17T07:46:02.243Z,64.43
2019-02-17T07:48:30.047Z,66.17
2019-02-17T07:50:57.844Z,67.43
2019-02-17T07:53:26.888Z,56.73
2019-02-17T07:55:54.677Z,57.97
2019-02-17T07:58:22.531Z,60.33
2019-02-17T08:00:50.518Z,57.53
2019-02-17T08:03:18.282Z,56.90
2019-02-17T08:05:46.076Z,58.10
2019-02-17T08:08:14.015Z,55.07
2019-02-17T08:10:41.825Z,55.27
2019-02-17T08:13:09.725Z,57.57
2019-02-17T08:15:37.721Z,60.20
2019-02-17T08:18:05.635Z,51.47
2019-02-17T08:20:33.399Z,53.23
2019-02-17T08:23:01.447Z,60.20
2019-02-17T08:25:29.237Z,50.23
2019-02-17T08:27:57.025Z,51.30
2019-02-17T08:30:25.052Z,50.07
2019-02-17T08:32:52.848Z,41.03
2019-02-17T08:35:20.700Z,48.23
2019-02-17T08:37:48.689Z,47.40
2019-02-17T08:40:16.464Z,44.30
2019-02-17T08:42:44.376Z,43.13
2019-02-17T08:45:12.386Z,50.27
2019-02-17T08:47:40.360Z,42.20
2019-02-17T08:50:09.303Z,42.70
2019-02-17T08:52:37.164Z,42.60
2019-02-17T08:55:06.638Z,38.20
2019-02-17T08:57:34.407Z,43.70
2019-02-17T09:00:04.960Z,42.60
2019-02-17T09:02:32.911Z,40.67
2019-02-17T09:05:00.737Z,47.17
2019-02-17T09:07:28.651Z,39.77
2019-02-17T09:09:56.434Z,32.60
2019-02-17T09:12:24.214Z,38.10
2019-02-17T09:14:52.169Z,34.50
2019-02-17T09:17:19.954Z,35.63
2019-02-17T09:19:48.100Z,31.90
2019-02-17T09:22:15.876Z,31.97
2019-02-17T09:24:43.657Z,34.67
2019-02-17T09:27:11.631Z,39.67
2019-02-17T09:29:39.423Z,29.60
2019-02-17T09:32:16.000Z,35.20
2019-02-17T09:34:37.173Z,29.37
2019-02-17T09:37:04.948Z,28.70
2019-02-17T09:39:32.733Z,32.43
2019-02-17T09:42:00.685Z,28.37
2019-02-17T09:44:28.486Z,32.83
2019-02-17T09:46:56.287Z,27.50
2019-02-17T09:49:24.251Z,33.70
2019-02-17T09:51:52.056Z,30.40
2019-02-17T09:54:20.048Z,28.63
2019-02-17T09:56:48.017Z,30.27
2019-02-17T09:59:15.931Z,27.53
2019-02-17T10:01:43.874Z,26.97
2019-02-17T10:04:11.687Z,25.13
2019-02-17T10:06:39.506Z,28.50
2019-02-17T10:09:07.478Z,26.70
2019-02-17T10:11:35.262Z,27.80
2019-02-17T10:14:03.065Z,27.40
2019-02-17T10:16:30.988Z,25.67
2019-02-17T10:18:58.819Z,32.33
2019-02-17T10:21:26.797Z,26.00
2019-02-17T10:23:54.705Z,24.80
2019-02-17T10:26:22.478Z,26.63
2019-02-17T10:28:50.259Z,23.90
2019-02-17T10:31:18.221Z,24.87
2019-02-17T10:33:46.016Z,24.23
2019-02-17T10:36:13.826Z,27.10
2019-02-17T10:38:41.841Z,25.70
2019-02-17T10:41:09.607Z,24.53
2019-02-17T10:43:37.397Z,24.93
2019-02-17T10:46:06.135Z,26.67
2019-02-17T10:48:34.079Z,28.40
2019-02-17T10:51:01.864Z,28.47
2019-02-17T10:53:29.784Z,26.00
2019-02-17T10:55:57.603Z,22.60
2019-02-17T10:58:25.538Z,25.63
2019-02-17T11:00:53.345Z,26.17
2019-02-17T11:03:21.149Z,23.97
2019-02-17T11:05:49.135Z,22.03
2019-02-17T11:08:16.952Z,24.10
2019-02-17T11:10:44.946Z,24.73
2019-02-17T11:13:12.849Z,24.20
2019-02-17T11:15:41.857Z,26.27
2019-02-17T11:18:09.643Z,24.73
2019-02-17T11:20:37.692Z,23.60
2019-02-17T11:23:05.774Z,24.43
2019-02-17T11:25:33.747Z,25.30
2019-02-17T11:28:01.561Z,23.23
2019-02-17T11:30:31.170Z,24.03
2019-02-17T11:32:59.113Z,24.17
2019-02-17T11:35:27.005Z,22.87
2019-02-17T11:37:54.994Z,22.67
2019-02-17T11:40:23.029Z,24.37
2019-02-17T11:42:50.828Z,23.67
2019-02-17T11:45:19.180Z,26.00
2019-02-17T11:47:46.995Z,23.13
2019-02-17T11:50:15.774Z,23.50
2019-02-17T11:52:45.607Z,23.40
2019-02-17T11:55:15.112Z,26.90
2019-02-17T11:57:42.887Z,22.40
2019-02-17T12:00:17.211Z,24.43
2019-02-17T12:02:46.128Z,22.00
2019-02-17T12:05:13.988Z,26.23
2019-02-17T12:07:41.995Z,22.60
2019-02-17T12:10:10.787Z,20.10
2019-02-17T12:12:38.975Z,23.60
2019-02-17T12:15:09.150Z,23.20
2019-02-17T12:17:36.917Z,22.07
2019-02-17T12:20:30.843Z,20.70
2019-02-17T12:23:03.223Z,22.30
2019-02-17T12:25:50.851Z,23.00
2019-02-17T12:28:28.652Z,20.47
2019-02-17T12:30:58.428Z,26.87
2019-02-17T12:33:26.264Z,22.13
2019-02-17T12:35:54.235Z,21.30
2019-02-17T12:38:22.129Z,22.30
2019-02-17T12:40:50.293Z,21.30
2019-02-17T12:43:18.100Z,21.37
2019-02-17T12:45:45.886Z,21.70
2019-02-17T12:48:13.946Z,22.13
2019-02-17T12:50:41.917Z,19.17
2019-02-17T12:53:09.727Z,19.10
2019-02-17T12:55:37.517Z,20.83
2019-02-17T12:58:05.632Z,21.30
2019-02-17T13:00:33.406Z,22.37
2019-02-17T13:03:01.203Z,19.63
2019-02-17T13:05:29.248Z,19.60
2019-02-17T13:07:57.037Z,19.73
2019-02-17T13:10:24.813Z,20.43
2019-02-17T13:12:52.762Z,20.07
2019-02-17T13:15:20.736Z,18.37
2019-02-17T13:17:48.526Z,18.17
2019-02-17T13:20:16.408Z,18.03
2019-02-17T13:22:44.338Z,21.03
2019-02-17T13:25:12.223Z,25.40
2019-02-17T13:27:40.001Z,20.07
2019-02-17T13:30:13.505Z,20.03
2019-02-17T13:32:41.313Z,19.97
2019-02-17T13:35:09.075Z,22.13
2019-02-17T13:37:38.328Z,18.93
2019-02-17T13:40:08.018Z,17.53
2019-02-17T13:42:35.970Z,21.80
2019-02-17T13:45:04.194Z,19.70
2019-02-17T13:47:32.001Z,19.47
2019-02-17T13:49:59.955Z,20.37
2019-02-17T13:52:27.918Z,18.73
2019-02-17T13:54:55.721Z,20.73
2019-02-17T13:57:23.506Z,18.70
2019-02-17T13:59:51.428Z,18.43
2019-02-17T14:02:19.207Z,19.57
2019-02-17T14:04:47.180Z,17.80
2019-02-17T14:07:14.952Z,18.47
2019-02-17T14:09:42.837Z,21.43
2019-02-17T14:12:10.781Z,19.47
2019-02-17T14:14:38.923Z,19.90
2019-02-17T14:17:07.050Z,20.20
2019-02-17T14:19:34.843Z,18.17
2019-02-17T14:22:02.635Z,18.70
2019-02-17T14:24:30.550Z,18.23
2019-02-17T14:26:58.346Z,19.23
2019-02-17T14:29:27.938Z,19.90
2019-02-17T14:31:55.917Z,20.73
2019-02-17T14:34:23.677Z,21.63
2019-02-17T14:36:51.491Z,20.57
2019-02-17T14:39:22.368Z,19.53
2019-02-17T14:41:50.136Z,22.13
2019-02-17T14:44:18.160Z,22.67
2019-02-17T14:46:45.974Z,18.50
2019-02-17T14:49:13.778Z,20.10
2019-02-17T14:51:41.741Z,20.93
2019-02-17T14:54:09.725Z,19.47
2019-02-17T14:56:37.518Z,18.03
2019-02-17T14:59:05.318Z,21.83
2019-02-17T15:01:33.252Z,18.70
2019-02-17T15:04:08.357Z,18.87
2019-02-17T15:06:30.774Z,20.20
2019-02-17T15:08:58.684Z,19.33
2019-02-17T15:11:28.256Z,20.37
2019-02-17T15:13:56.068Z,20.03
2019-02-17T15:16:23.986Z,17.93
2019-02-17T15:18:51.795Z,19.20
2019-02-17T15:21:19.600Z,18.53
2019-02-17T15:23:47.555Z,17.33
2019-02-17T15:26:17.162Z,22.10
2019-02-17T15:28:50.979Z,21.07
2019-02-17T15:31:14.996Z,18.37
2019-02-17T15:33:43.050Z,21.07
2019-02-17T15:36:10.856Z,17.90
2019-02-17T15:38:38.630Z,18.97
2019-02-17T15:41:07.009Z,18.93
2019-02-17T15:43:34.889Z,19.23
2019-02-17T15:46:02.809Z,17.83
2019-02-17T15:48:33.040Z,21.30
2019-02-17T15:51:06.507Z,18.53
2019-02-17T15:53:31.066Z,19.90
2019-02-17T15:55:59.204Z,18.37
2019-02-17T15:58:27.173Z,17.60
2019-02-17T16:00:54.972Z,17.60
2019-02-17T16:03:23.021Z,18.00
2019-02-17T16:05:50.815Z,16.70
2019-02-17T16:08:18.618Z,16.00
2019-02-17T16:10:47.020Z,15.50
2019-02-17T16:13:15.267Z,17.07
2019-02-17T16:15:43.060Z,18.83
2019-02-17T16:18:10.972Z,20.03
2019-02-17T16:20:38.898Z,19.50
2019-02-17T16:23:06.741Z,18.30
2019-02-17T16:25:34.576Z,17.97
2019-02-17T16:28:02.663Z,14.80
2019-02-17T16:30:30.627Z,19.10
2019-02-17T16:32:58.609Z,16.60
2019-02-17T16:35:26.533Z,18.47
2019-02-17T16:37:54.447Z,16.30
2019-02-17T16:40:22.248Z,17.80
2019-02-17T16:42:50.504Z,15.77
2019-02-17T16:45:18.488Z,17.87
2019-02-17T16:47:46.304Z,18.33
2019-02-17T16:50:17.332Z,16.87
2019-02-17T16:52:45.479Z,16.60
2019-02-17T16:55:13.296Z,14.93
2019-02-17T16:57:41.513Z,16.57
2019-02-17T17:00:13.099Z,17.40
2019-02-17T17:02:40.942Z,16.10
2019-02-17T17:05:09.578Z,16.77
2019-02-17T17:07:37.442Z,15.17
2019-02-17T17:10:06.142Z,18.83
2019-02-17T17:12:33.957Z,14.10
2019-02-17T17:15:04.124Z,17.67
2019-02-17T17:17:32.183Z,14.03
2019-02-17T17:19:59.982Z,16.20
2019-02-17T17:22:27.775Z,20.13
2019-02-17T17:24:55.875Z,14.33
2019-02-17T17:27:23.680Z,16.23
2019-02-17T17:29:51.629Z,15.40
2019-02-17T17:32:19.431Z,14.77
2019-02-17T17:34:47.358Z,14.40
2019-02-17T17:37:15.250Z,14.80
2019-02-17T17:39:43.090Z,17.67
2019-02-17T17:42:11.074Z,14.27
2019-02-17T17:44:38.907Z,15.27
2019-02-17T17:47:08.577Z,14.40
2019-02-17T17:49:36.539Z,14.57
2019-02-17T17:52:04.338Z,15.27
2019-02-17T17:54:32.490Z,15.43
2019-02-17T17:57:00.463Z,13.37
2019-02-17T17:59:28.397Z,12.93
2019-02-17T18:01:56.190Z,13.97
2019-02-17T18:04:24.174Z,12.57
2019-02-17T18:06:52.174Z,15.37
2019-02-17T18:09:19.998Z,12.50
2019-02-17T18:11:47.784Z,12.93
2019-02-17T18:14:15.790Z,12.80
2019-02-17T18:16:43.582Z,12.57
2019-02-17T18:19:11.507Z,11.23
2019-02-17T18:21:39.483Z,12.77
2019-02-17T18:24:07.292Z,12.20
2019-02-17T18:26:35.089Z,13.20
2019-02-17T18:29:03.108Z,12.30
2019-02-17T18:31:31.992Z,11.23
2019-02-17T18:33:59.901Z,11.97
2019-02-17T18:36:27.847Z,14.20
2019-02-17T18:38:56.879Z,12.47
2019-02-17T18:41:25.782Z,12.90
2019-02-17T18:43:53.801Z,10.97
2019-02-17T18:46:21.602Z,11.30
2019-02-17T18:48:49.491Z,12.17
2019-02-17T18:51:17.524Z,10.83
2019-02-17T18:53:45.342Z,13.30
2019-02-17T18:56:13.480Z,12.97
2019-02-17T18:58:41.642Z,14.43
2019-02-17T19:01:09.456Z,13.07
2019-02-17T19:03:37.260Z,11.80
2019-02-17T19:06:05.260Z,12.37
2019-02-17T19:08:33.094Z,13.87
2019-02-17T19:11:02.075Z,12.37
2019-02-17T19:13:29.996Z,12.97
2019-02-17T19:15:57.999Z,12.20
2019-02-17T19:18:25.803Z,11.10
2019-02-17T19:20:53.596Z,12.27
2019-02-17T19:23:21.585Z,12.00
2019-02-17T19:25:49.510Z,15.10
2019-02-17T19:28:17.433Z,15.60
2019-02-17T19:30:45.406Z,15.47
2019-02-17T19:33:13.184Z,14.93
2019-02-17T19:35:42.276Z,13.00
2019-02-17T19:38:10.470Z,13.10
2019-02-17T19:40:38.436Z,14.03
2019-02-17T19:43:06.225Z,14.37
2019-02-17T19:45:34.045Z,12.97
2019-02-17T19:48:02.277Z,13.17
2019-02-17T19:50:31.812Z,14.03
2019-02-17T19:53:00.044Z,12.53
2019-02-17T19:55:27.877Z,12.20
2019-02-17T19:57:55.728Z,11.67
2019-02-17T20:00:23.654Z,11.40
2019-02-17T20:03:16.636Z,11.23
2019-02-17T20:05:52.037Z,12.43
2019-02-17T20:08:17.621Z,11.63
2019-02-17T20:10:45.631Z,11.80
2019-02-17T20:13:13.460Z,13.80
2019-02-17T20:15:41.250Z,13.47
2019-02-17T20:18:09.244Z,14.70
2019-02-17T20:20:37.232Z,12.97
2019-02-17T20:23:05.023Z,12.43
2019-02-17T20:25:32.927Z,13.67
2019-02-17T20:28:00.931Z,13.27
2019-02-17T20:30:28.900Z,15.43
2019-02-17T20:32:56.696Z,12.80
2019-02-17T20:35:24.652Z,14.20
2019-02-17T20:37:52.632Z,12.37
2019-02-17T20:40:20.650Z,14.97
2019-02-17T20:42:48.437Z,13.30
2019-02-17T20:45:16.343Z,14.20
2019-02-17T20:47:44.729Z,18.80
2019-02-17T20:50:12.628Z,12.93
2019-02-17T20:52:40.589Z,16.27
2019-02-17T20:55:08.495Z,17.23
2019-02-17T20:57:36.287Z,17.50
2019-02-17T21:00:05.057Z,15.40
2019-02-17T21:02:33.074Z,16.40
2019-02-17T21:05:00.871Z,14.43
2019-02-17T21:07:28.693Z,14.80
2019-02-17T21:09:56.697Z,14.27
2019-02-17T21:12:24.489Z,14.60
2019-02-17T21:14:52.260Z,14.33
2019-02-17T21:17:20.824Z,13.43
2019-02-17T21:19:48.583Z,14.07
2019-02-17T21:22:16.575Z,12.53
2019-02-17T21:24:44.358Z,14.83
2019-02-17T21:27:12.146Z,14.50
2019-02-17T21:29:40.081Z,17.27
2019-02-17T21:32:07.878Z,18.37
2019-02-17T21:34:35.813Z,16.80
2019-02-17T21:37:03.597Z,13.20
2019-02-17T21:39:31.581Z,14.53
2019-02-17T21:41:59.530Z,15.33
2019-02-17T21:44:27.479Z,15.33
2019-02-17T21:46:55.472Z,18.90
2019-02-17T21:49:23.444Z,15.73
2019-02-17T21:51:51.391Z,17.37
2019-02-17T21:54:19.221Z,18.20
2019-02-17T21:56:47.171Z,16.77
2019-02-17T21:59:15.048Z,16.70
2019-02-17T22:01:42.930Z,14.20
2019-02-17T22:04:10.882Z,16.20
2019-02-17T22:06:38.678Z,16.10
2019-02-17T22:09:07.086Z,14.17
2019-02-17T22:11:36.034Z,14.50
2019-02-17T22:14:03.826Z,13.50
2019-02-17T22:16:31.596Z,13.70
2019-02-17T22:18:59.543Z,16.00
2019-02-17T22:21:27.316Z,15.90
2019-02-17T22:23:55.282Z,17.13
2019-02-17T22:26:23.081Z,13.70
2019-02-17T22:28:51.028Z,14.53
2019-02-17T22:31:18.802Z,14.73
2019-02-17T22:33:46.770Z,13.03
2019-02-17T22:36:14.738Z,14.80
2019-02-17T22:38:42.639Z,16.00
2019-02-17T22:41:10.419Z,17.30
2019-02-17T22:43:38.205Z,14.63
2019-02-17T22:46:06.129Z,15.47
2019-02-17T22:48:34.099Z,14.70
2019-02-17T22:51:02.112Z,13.07
2019-02-17T22:53:29.951Z,18.30
2019-02-17T22:55:57.741Z,14.10
2019-02-17T22:58:25.881Z,14.47
2019-02-17T23:01:06.554Z,15.90
2019-02-17T23:03:34.527Z,13.50
2019-02-17T23:06:02.337Z,14.83
2019-02-17T23:08:30.267Z,13.80
2019-02-17T23:10:58.155Z,15.97
2019-02-17T23:13:26.139Z,14.83
2019-02-17T23:15:54.093Z,16.07
2019-02-17T23:18:21.866Z,13.87
2019-02-17T23:20:49.665Z,13.90
2019-02-17T23:23:17.597Z,15.60
2019-02-17T23:25:45.372Z,13.90
2019-02-17T23:28:13.131Z,15.60
2019-02-17T23:30:41.110Z,15.20
2019-02-17T23:33:08.907Z,16.57
2019-02-17T23:35:36.862Z,15.17
2019-02-17T23:38:04.841Z,18.77
2019-02-17T23:40:32.799Z,16.50
2019-02-17T23:43:00.570Z,16.30
2019-02-17T23:45:28.329Z,16.03
2019-02-17T23:47:56.315Z,16.27
2019-02-17T23:50:24.087Z,14.77
2019-02-17T23:52:54.677Z,18.50
2019-02-17T23:55:22.899Z,16.40
2019-02-17T23:57:50.665Z,16.60
